LPLA METAR and TAF weather

Enter ICAO airport designator
Station Type Date Time Source
LPLA METAR 2022/12/04 04:00 UTC NOAA

LPLA 040400Z /////KT 9999 FEW015 SCT022 15/13 Q1004


Station Type Date Time Source
LPLA Decoded METAR 2022/12/04 04:00 UTC NOAA

Lajes Acores , Portugal (LPLA) 38-46N 027-06W 54M
Dec 03, 2022 - 11:00 PM EST / 2022.12.04 0400 UTC
Visibility: greater than 7 mile(s):0
Sky conditions: partly cloudy
Temperature: 59 F (15 C)
Dew Point: 55 F (13 C)
Relative Humidity: 87%
Pressure (altimeter): 29.65 in. Hg (1004 hPa)
ob: LPLA 040400Z /////KT 9999 FEW015 SCT022 15/13 Q1004
cycle: 4

Station Type Date Time Source
LPLA TAF 2022/12/03 18:18 UTC NOAA

TAF LPLA 031704Z 0318/0418 33025KT 9999 SCT025
TEMPO 0318/0324 33030G42KT 4000 SHRA BKN014 FEW022CB
TEMPO 0400/0404 35028G40KT
BECMG 0404/0406 36020KT
TEMPO 0404/0412 01022G32KT 7000 -SHRA BKN020
BECMG 0412/0414 02015KT

Example: see airport list